sensor_id;sensor_type;location;lat;lon;timestamp;P1;durP1;ratioP1;P2;durP2;ratioP2
63095;SDS011;49184;55.596;37.770;2022-12-13T00:00:32;6.40;;;3.38;;
63095;SDS011;49184;55.596;37.770;2022-12-13T00:02:58;4.57;;;3.20;;
63095;SDS011;49184;55.596;37.770;2022-12-13T00:05:25;4.95;;;3.13;;
63095;SDS011;49184;55.596;37.770;2022-12-13T00:07:51;4.45;;;3.30;;
63095;SDS011;49184;55.596;37.770;2022-12-13T00:10:17;4.88;;;3.50;;
63095;SDS011;49184;55.596;37.770;2022-12-13T00:12:43;5.07;;;3.47;;
63095;SDS011;49184;55.596;37.770;2022-12-13T00:15:09;4.50;;;3.13;;
63095;SDS011;49184;55.596;37.770;2022-12-13T00:17:36;5.03;;;3.20;;
63095;SDS011;49184;55.596;37.770;2022-12-13T00:20:02;3.70;;;2.85;;
63095;SDS011;49184;55.596;37.770;2022-12-13T00:22:29;4.65;;;3.35;;
63095;SDS011;49184;55.596;37.770;2022-12-13T00:24:55;4.75;;;3.40;;
63095;SDS011;49184;55.596;37.770;2022-12-13T00:27:21;4.32;;;3.08;;
63095;SDS011;49184;55.596;37.770;2022-12-13T00:29:48;5.30;;;3.30;;
63095;SDS011;49184;55.596;37.770;2022-12-13T00:32:14;5.57;;;3.20;;
63095;SDS011;49184;55.596;37.770;2022-12-13T00:34:40;5.20;;;3.10;;
63095;SDS011;49184;55.596;37.770;2022-12-13T00:37:12;5.30;;;3.45;;
63095;SDS011;49184;55.596;37.770;2022-12-13T00:39:41;4.95;;;3.33;;
63095;SDS011;49184;55.596;37.770;2022-12-13T00:42:07;4.80;;;3.35;;
63095;SDS011;49184;55.596;37.770;2022-12-13T00:44:34;4.40;;;3.20;;
63095;SDS011;49184;55.596;37.770;2022-12-13T00:47:00;6.03;;;3.70;;
63095;SDS011;49184;55.596;37.770;2022-12-13T00:49:26;5.07;;;3.58;;
63095;SDS011;49184;55.596;37.770;2022-12-13T00:51:52;4.68;;;3.38;;
63095;SDS011;49184;55.596;37.770;2022-12-13T00:54:18;6.18;;;3.67;;
63095;SDS011;49184;55.596;37.770;2022-12-13T00:56:44;5.45;;;4.18;;
63095;SDS011;49184;55.596;37.770;2022-12-13T00:59:12;7.47;;;3.92;;
63095;SDS011;49184;55.596;37.770;2022-12-13T01:01:39;4.95;;;3.65;;
63095;SDS011;49184;55.596;37.770;2022-12-13T01:04:05;6.25;;;4.70;;
63095;SDS011;49184;55.596;37.770;2022-12-13T01:06:40;5.68;;;4.20;;
63095;SDS011;49184;55.596;37.770;2022-12-13T01:09:21;6.13;;;4.00;;
63095;SDS011;49184;55.596;37.770;2022-12-13T01:11:56;6.72;;;4.57;;
63095;SDS011;49184;55.596;37.770;2022-12-13T01:14:25;7.35;;;4.35;;
63095;SDS011;49184;55.596;37.770;2022-12-13T01:19:21;8.88;;;5.22;;
63095;SDS011;49184;55.596;37.770;2022-12-13T01:21:48;7.45;;;4.65;;
63095;SDS011;49184;55.596;37.770;2022-12-13T01:24:14;5.55;;;3.88;;
63095;SDS011;49184;55.596;37.770;2022-12-13T01:26:40;7.50;;;4.70;;
63095;SDS011;49184;55.596;37.770;2022-12-13T01:29:06;8.05;;;4.32;;
63095;SDS011;49184;55.596;37.770;2022-12-13T01:31:33;6.25;;;4.25;;
63095;SDS011;49184;55.596;37.770;2022-12-13T01:33:59;6.10;;;4.38;;
63095;SDS011;49184;55.596;37.770;2022-12-13T01:36:34;6.50;;;4.25;;
63095;SDS011;49184;55.596;37.770;2022-12-13T01:39:01;9.10;;;5.15;;
63095;SDS011;49184;55.596;37.770;2022-12-13T01:41:28;7.70;;;4.50;;
63095;SDS011;49184;55.596;37.770;2022-12-13T01:43:56;6.95;;;4.68;;
63095;SDS011;49184;55.596;37.770;2022-12-13T01:46:31;8.43;;;5.05;;
63095;SDS011;49184;55.596;37.770;2022-12-13T01:51:35;6.25;;;4.07;;
63095;SDS011;49184;55.596;37.770;2022-12-13T01:54:08;6.53;;;4.25;;
63095;SDS011;49184;55.596;37.770;2022-12-13T01:56:40;6.80;;;4.38;;
63095;SDS011;49184;55.596;37.770;2022-12-13T01:59:13;7.57;;;4.68;;
63095;SDS011;49184;55.596;37.770;2022-12-13T02:01:46;6.50;;;3.90;;
63095;SDS011;49184;55.596;37.770;2022-12-13T02:04:14;6.55;;;4.18;;
63095;SDS011;49184;55.596;37.770;2022-12-13T02:06:45;5.40;;;3.88;;
63095;SDS011;49184;55.596;37.770;2022-12-13T02:09:12;7.63;;;4.30;;
63095;SDS011;49184;55.596;37.770;2022-12-13T02:11:40;5.70;;;3.63;;
63095;SDS011;49184;55.596;37.770;2022-12-13T02:14:08;6.05;;;4.10;;
63095;SDS011;49184;55.596;37.770;2022-12-13T02:25:26;6.50;;;3.75;;
63095;SDS011;49184;55.596;37.770;2022-12-13T02:31:09;6.97;;;3.55;;
63095;SDS011;49184;55.596;37.770;2022-12-13T02:36:28;4.97;;;3.42;;
63095;SDS011;49184;55.596;37.770;2022-12-13T02:39:15;6.18;;;4.00;;
63095;SDS011;49184;55.596;37.770;2022-12-13T02:46:58;5.38;;;3.50;;
63095;SDS011;49184;55.596;37.770;2022-12-13T02:49:36;7.55;;;3.47;;
63095;SDS011;49184;55.596;37.770;2022-12-13T02:52:06;7.70;;;4.00;;
63095;SDS011;49184;55.596;37.770;2022-12-13T02:54:35;8.52;;;4.25;;
63095;SDS011;49184;55.596;37.770;2022-12-13T02:57:01;6.25;;;3.75;;
63095;SDS011;49184;55.596;37.770;2022-12-13T02:59:29;6.38;;;4.07;;
63095;SDS011;49184;55.596;37.770;2022-12-13T03:02:07;7.47;;;3.90;;
63095;SDS011;49184;55.596;37.770;2022-12-13T03:13:43;5.55;;;3.50;;
63095;SDS011;49184;55.596;37.770;2022-12-13T03:16:16;5.63;;;3.58;;
63095;SDS011;49184;55.596;37.770;2022-12-13T03:18:47;9.15;;;4.22;;
63095;SDS011;49184;55.596;37.770;2022-12-13T03:21:16;6.53;;;3.95;;
63095;SDS011;49184;55.596;37.770;2022-12-13T03:23:43;6.03;;;3.77;;
63095;SDS011;49184;55.596;37.770;2022-12-13T03:26:11;9.25;;;4.05;;
63095;SDS011;49184;55.596;37.770;2022-12-13T03:28:41;5.95;;;3.90;;
63095;SDS011;49184;55.596;37.770;2022-12-13T03:31:07;5.93;;;4.07;;
63095;SDS011;49184;55.596;37.770;2022-12-13T03:33:33;6.93;;;4.40;;
63095;SDS011;49184;55.596;37.770;2022-12-13T03:36:00;6.03;;;4.30;;
63095;SDS011;49184;55.596;37.770;2022-12-13T03:38:27;6.53;;;4.45;;
63095;SDS011;49184;55.596;37.770;2022-12-13T03:41:05;7.35;;;4.57;;
63095;SDS011;49184;55.596;37.770;2022-12-13T03:43:35;6.35;;;4.07;;
63095;SDS011;49184;55.596;37.770;2022-12-13T03:46:02;8.52;;;4.82;;
63095;SDS011;49184;55.596;37.770;2022-12-13T03:48:29;8.10;;;5.07;;
63095;SDS011;49184;55.596;37.770;2022-12-13T03:50:56;7.93;;;4.88;;
63095;SDS011;49184;55.596;37.770;2022-12-13T03:53:23;7.72;;;4.75;;
63095;SDS011;49184;55.596;37.770;2022-12-13T03:55:50;8.90;;;5.47;;
63095;SDS011;49184;55.596;37.770;2022-12-13T04:00:44;6.43;;;4.60;;
63095;SDS011;49184;55.596;37.770;2022-12-13T04:03:10;6.78;;;4.43;;
63095;SDS011;49184;55.596;37.770;2022-12-13T04:05:36;7.13;;;4.60;;
63095;SDS011;49184;55.596;37.770;2022-12-13T04:08:03;8.37;;;5.20;;
63095;SDS011;49184;55.596;37.770;2022-12-13T04:10:29;7.43;;;4.40;;
63095;SDS011;49184;55.596;37.770;2022-12-13T04:12:55;8.65;;;5.10;;
63095;SDS011;49184;55.596;37.770;2022-12-13T04:15:40;7.25;;;4.65;;
63095;SDS011;49184;55.596;37.770;2022-12-13T04:18:16;7.93;;;5.03;;
63095;SDS011;49184;55.596;37.770;2022-12-13T04:20:47;9.02;;;4.95;;
63095;SDS011;49184;55.596;37.770;2022-12-13T04:23:14;7.63;;;4.38;;
63095;SDS011;49184;55.596;37.770;2022-12-13T04:25:47;8.45;;;4.82;;
63095;SDS011;49184;55.596;37.770;2022-12-13T04:28:13;5.63;;;4.30;;
63095;SDS011;49184;55.596;37.770;2022-12-13T04:30:39;7.00;;;4.68;;
63095;SDS011;49184;55.596;37.770;2022-12-13T04:33:05;6.13;;;4.18;;
63095;SDS011;49184;55.596;37.770;2022-12-13T04:35:34;8.23;;;4.22;;
63095;SDS011;49184;55.596;37.770;2022-12-13T04:38:00;10.25;;;4.50;;
63095;SDS011;49184;55.596;37.770;2022-12-13T04:40:28;8.88;;;4.70;;
63095;SDS011;49184;55.596;37.770;2022-12-13T04:42:54;8.35;;;4.90;;
63095;SDS011;49184;55.596;37.770;2022-12-13T04:45:21;6.78;;;4.63;;
63095;SDS011;49184;55.596;37.770;2022-12-13T04:47:49;7.57;;;4.97;;
63095;SDS011;49184;55.596;37.770;2022-12-13T04:50:19;7.90;;;4.85;;
63095;SDS011;49184;55.596;37.770;2022-12-13T04:52:49;8.10;;;4.70;;
63095;SDS011;49184;55.596;37.770;2022-12-13T04:55:17;8.98;;;4.72;;
63095;SDS011;49184;55.596;37.770;2022-12-13T04:57:46;7.57;;;4.90;;
63095;SDS011;49184;55.596;37.770;2022-12-13T05:00:16;7.30;;;5.35;;
63095;SDS011;49184;55.596;37.770;2022-12-13T05:02:42;8.30;;;5.28;;
63095;SDS011;49184;55.596;37.770;2022-12-13T05:05:08;8.05;;;4.90;;
63095;SDS011;49184;55.596;37.770;2022-12-13T05:07:37;7.32;;;4.97;;
63095;SDS011;49184;55.596;37.770;2022-12-13T05:10:13;7.15;;;4.65;;
63095;SDS011;49184;55.596;37.770;2022-12-13T05:12:39;5.90;;;4.28;;
63095;SDS011;49184;55.596;37.770;2022-12-13T05:15:05;5.97;;;4.53;;
63095;SDS011;49184;55.596;37.770;2022-12-13T05:17:32;7.50;;;4.60;;
63095;SDS011;49184;55.596;37.770;2022-12-13T05:19:59;7.38;;;4.82;;
63095;SDS011;49184;55.596;37.770;2022-12-13T05:22:25;7.45;;;4.47;;
63095;SDS011;49184;55.596;37.770;2022-12-13T05:24:53;9.05;;;6.05;;
63095;SDS011;49184;55.596;37.770;2022-12-13T05:29:50;11.55;;;4.93;;
63095;SDS011;49184;55.596;37.770;2022-12-13T05:32:16;6.13;;;4.55;;
63095;SDS011;49184;55.596;37.770;2022-12-13T05:34:44;7.00;;;4.50;;
63095;SDS011;49184;55.596;37.770;2022-12-13T05:37:10;10.88;;;5.88;;
63095;SDS011;49184;55.596;37.770;2022-12-13T05:39:37;11.70;;;5.57;;
63095;SDS011;49184;55.596;37.770;2022-12-13T05:42:04;7.18;;;5.40;;
63095;SDS011;49184;55.596;37.770;2022-12-13T05:44:30;7.10;;;4.72;;
63095;SDS011;49184;55.596;37.770;2022-12-13T05:46:57;7.78;;;5.28;;
63095;SDS011;49184;55.596;37.770;2022-12-13T05:49:24;6.57;;;5.03;;
63095;SDS011;49184;55.596;37.770;2022-12-13T05:51:50;8.80;;;5.40;;
63095;SDS011;49184;55.596;37.770;2022-12-13T05:54:20;7.82;;;5.30;;
63095;SDS011;49184;55.596;37.770;2022-12-13T05:56:48;12.20;;;5.82;;
63095;SDS011;49184;55.596;37.770;2022-12-13T05:59:18;7.57;;;4.65;;
63095;SDS011;49184;55.596;37.770;2022-12-13T06:01:45;6.90;;;4.82;;
63095;SDS011;49184;55.596;37.770;2022-12-13T06:06:39;6.82;;;4.85;;
63095;SDS011;49184;55.596;37.770;2022-12-13T06:09:09;6.28;;;4.80;;
63095;SDS011;49184;55.596;37.770;2022-12-13T06:11:37;6.75;;;4.88;;
63095;SDS011;49184;55.596;37.770;2022-12-13T06:14:07;7.88;;;5.53;;
63095;SDS011;49184;55.596;37.770;2022-12-13T06:16:34;10.68;;;6.10;;
63095;SDS011;49184;55.596;37.770;2022-12-13T06:19:06;7.10;;;5.50;;
63095;SDS011;49184;55.596;37.770;2022-12-13T06:21:33;8.65;;;6.15;;
63095;SDS011;49184;55.596;37.770;2022-12-13T06:24:14;9.32;;;6.45;;
63095;SDS011;49184;55.596;37.770;2022-12-13T06:26:44;16.27;;;8.10;;
63095;SDS011;49184;55.596;37.770;2022-12-13T06:29:10;12.15;;;7.28;;
63095;SDS011;49184;55.596;37.770;2022-12-13T06:31:36;10.80;;;6.67;;
63095;SDS011;49184;55.596;37.770;2022-12-13T06:34:03;9.37;;;6.23;;
63095;SDS011;49184;55.596;37.770;2022-12-13T06:36:30;9.07;;;6.25;;
63095;SDS011;49184;55.596;37.770;2022-12-13T06:39:05;8.30;;;5.88;;
63095;SDS011;49184;55.596;37.770;2022-12-13T06:41:32;15.50;;;6.90;;
63095;SDS011;49184;55.596;37.770;2022-12-13T06:43:58;10.10;;;6.57;;
63095;SDS011;49184;55.596;37.770;2022-12-13T06:46:25;10.43;;;6.15;;
63095;SDS011;49184;55.596;37.770;2022-12-13T06:48:53;10.65;;;6.70;;
63095;SDS011;49184;55.596;37.770;2022-12-13T06:51:22;10.00;;;7.18;;
63095;SDS011;49184;55.596;37.770;2022-12-13T06:53:50;10.23;;;7.07;;
63095;SDS011;49184;55.596;37.770;2022-12-13T06:56:18;12.27;;;7.18;;
63095;SDS011;49184;55.596;37.770;2022-12-13T06:58:44;11.48;;;7.38;;
63095;SDS011;49184;55.596;37.770;2022-12-13T07:01:12;11.13;;;6.67;;
63095;SDS011;49184;55.596;37.770;2022-12-13T07:03:40;11.00;;;6.45;;
63095;SDS011;49184;55.596;37.770;2022-12-13T07:06:17;9.98;;;6.88;;
63095;SDS011;49184;55.596;37.770;2022-12-13T07:08:50;14.65;;;8.63;;
63095;SDS011;49184;55.596;37.770;2022-12-13T07:11:20;10.88;;;7.93;;
63095;SDS011;49184;55.596;37.770;2022-12-13T07:13:51;9.82;;;7.10;;
63095;SDS011;49184;55.596;37.770;2022-12-13T07:16:24;11.45;;;7.75;;
63095;SDS011;49184;55.596;37.770;2022-12-13T07:18:53;11.20;;;7.75;;
63095;SDS011;49184;55.596;37.770;2022-12-13T07:21:25;11.77;;;8.60;;
63095;SDS011;49184;55.596;37.770;2022-12-13T07:23:57;16.20;;;8.82;;
63095;SDS011;49184;55.596;37.770;2022-12-13T07:26:25;12.18;;;8.23;;
63095;SDS011;49184;55.596;37.770;2022-12-13T07:28:52;12.52;;;7.47;;
63095;SDS011;49184;55.596;37.770;2022-12-13T07:31:21;12.52;;;8.50;;
63095;SDS011;49184;55.596;37.770;2022-12-13T07:33:48;13.27;;;7.78;;
63095;SDS011;49184;55.596;37.770;2022-12-13T07:36:20;14.18;;;8.55;;
63095;SDS011;49184;55.596;37.770;2022-12-13T07:38:51;14.57;;;8.57;;
63095;SDS011;49184;55.596;37.770;2022-12-13T07:41:22;12.50;;;8.15;;
63095;SDS011;49184;55.596;37.770;2022-12-13T07:43:55;15.20;;;8.52;;
63095;SDS011;49184;55.596;37.770;2022-12-13T07:46:22;12.15;;;7.82;;
63095;SDS011;49184;55.596;37.770;2022-12-13T07:48:49;14.95;;;8.02;;
63095;SDS011;49184;55.596;37.770;2022-12-13T07:51:17;11.80;;;7.63;;
63095;SDS011;49184;55.596;37.770;2022-12-13T07:53:54;11.45;;;7.50;;
63095;SDS011;49184;55.596;37.770;2022-12-13T07:56:26;10.52;;;7.47;;
63095;SDS011;49184;55.596;37.770;2022-12-13T07:58:53;11.50;;;7.68;;
63095;SDS011;49184;55.596;37.770;2022-12-13T08:01:20;13.70;;;7.63;;
63095;SDS011;49184;55.596;37.770;2022-12-13T08:03:48;11.18;;;7.32;;
63095;SDS011;49184;55.596;37.770;2022-12-13T08:06:15;10.63;;;7.80;;
63095;SDS011;49184;55.596;37.770;2022-12-13T08:08:43;11.70;;;7.43;;
63095;SDS011;49184;55.596;37.770;2022-12-13T08:11:11;10.80;;;7.53;;
63095;SDS011;49184;55.596;37.770;2022-12-13T08:13:41;13.55;;;7.55;;
63095;SDS011;49184;55.596;37.770;2022-12-13T08:16:08;11.60;;;7.68;;
63095;SDS011;49184;55.596;37.770;2022-12-13T08:18:36;10.32;;;7.13;;
63095;SDS011;49184;55.596;37.770;2022-12-13T08:21:06;11.70;;;6.75;;
63095;SDS011;49184;55.596;37.770;2022-12-13T08:23:37;11.52;;;7.05;;
63095;SDS011;49184;55.596;37.770;2022-12-13T08:26:04;12.40;;;7.28;;
63095;SDS011;49184;55.596;37.770;2022-12-13T08:28:31;12.55;;;8.23;;
63095;SDS011;49184;55.596;37.770;2022-12-13T08:31:03;12.90;;;8.00;;
63095;SDS011;49184;55.596;37.770;2022-12-13T08:33:35;9.73;;;7.20;;
63095;SDS011;49184;55.596;37.770;2022-12-13T08:36:09;12.98;;;7.78;;
63095;SDS011;49184;55.596;37.770;2022-12-13T08:38:42;9.05;;;6.45;;
63095;SDS011;49184;55.596;37.770;2022-12-13T08:41:08;9.88;;;6.75;;
63095;SDS011;49184;55.596;37.770;2022-12-13T08:43:36;11.33;;;7.60;;
63095;SDS011;49184;55.596;37.770;2022-12-13T08:46:05;8.93;;;6.18;;
63095;SDS011;49184;55.596;37.770;2022-12-13T08:48:31;10.63;;;7.13;;
63095;SDS011;49184;55.596;37.770;2022-12-13T08:53:36;14.20;;;8.50;;
63095;SDS011;49184;55.596;37.770;2022-12-13T08:56:04;13.18;;;7.68;;
63095;SDS011;49184;55.596;37.770;2022-12-13T08:58:33;13.35;;;6.97;;
63095;SDS011;49184;55.596;37.770;2022-12-13T09:01:05;8.50;;;5.97;;
63095;SDS011;49184;55.596;37.770;2022-12-13T09:03:37;10.48;;;6.50;;
63095;SDS011;49184;55.596;37.770;2022-12-13T09:06:10;9.50;;;6.25;;
63095;SDS011;49184;55.596;37.770;2022-12-13T09:08:42;11.43;;;7.88;;
63095;SDS011;49184;55.596;37.770;2022-12-13T09:11:11;12.23;;;6.68;;
63095;SDS011;49184;55.596;37.770;2022-12-13T09:13:38;12.68;;;7.25;;
63095;SDS011;49184;55.596;37.770;2022-12-13T09:18:37;9.15;;;6.55;;
63095;SDS011;49184;55.596;37.770;2022-12-13T09:21:04;9.60;;;6.72;;
63095;SDS011;49184;55.596;37.770;2022-12-13T09:23:35;9.27;;;6.78;;
63095;SDS011;49184;55.596;37.770;2022-12-13T09:26:02;10.05;;;6.57;;
63095;SDS011;49184;55.596;37.770;2022-12-13T09:28:28;9.10;;;6.60;;
63095;SDS011;49184;55.596;37.770;2022-12-13T09:30:56;12.48;;;6.78;;
63095;SDS011;49184;55.596;37.770;2022-12-13T09:33:29;12.00;;;7.57;;
63095;SDS011;49184;55.596;37.770;2022-12-13T09:35:56;19.80;;;10.23;;
63095;SDS011;49184;55.596;37.770;2022-12-13T09:38:22;16.25;;;9.10;;
63095;SDS011;49184;55.596;37.770;2022-12-13T09:40:48;17.15;;;9.63;;
63095;SDS011;49184;55.596;37.770;2022-12-13T09:43:25;23.90;;;8.95;;
63095;SDS011;49184;55.596;37.770;2022-12-13T09:45:56;9.52;;;5.70;;
63095;SDS011;49184;55.596;37.770;2022-12-13T09:48:24;8.18;;;4.82;;
63095;SDS011;49184;55.596;37.770;2022-12-13T09:51:20;4.82;;;3.00;;
63095;SDS011;49184;55.596;37.770;2022-12-13T09:53:49;4.85;;;3.28;;
63095;SDS011;49184;55.596;37.770;2022-12-13T09:56:18;4.28;;;2.30;;
63095;SDS011;49184;55.596;37.770;2022-12-13T09:58:50;3.88;;;2.00;;
63095;SDS011;49184;55.596;37.770;2022-12-13T10:01:18;2.35;;;1.70;;
63095;SDS011;49184;55.596;37.770;2022-12-13T10:03:59;2.40;;;1.60;;
63095;SDS011;49184;55.596;37.770;2022-12-13T10:06:27;3.00;;;1.80;;
63095;SDS011;49184;55.596;37.770;2022-12-13T10:08:59;3.83;;;1.70;;
63095;SDS011;49184;55.596;37.770;2022-12-13T10:12:01;2.65;;;1.65;;
63095;SDS011;49184;55.596;37.770;2022-12-13T10:14:29;3.75;;;1.83;;
63095;SDS011;49184;55.596;37.770;2022-12-13T10:17:07;5.28;;;1.90;;
63095;SDS011;49184;55.596;37.770;2022-12-13T10:19:44;3.70;;;2.45;;
63095;SDS011;49184;55.596;37.770;2022-12-13T10:22:29;7.13;;;2.93;;
63095;SDS011;49184;55.596;37.770;2022-12-13T10:24:59;2.75;;;1.95;;
63095;SDS011;49184;55.596;37.770;2022-12-13T10:27:34;3.72;;;2.33;;
63095;SDS011;49184;55.596;37.770;2022-12-13T10:32:56;5.15;;;2.90;;
63095;SDS011;49184;55.596;37.770;2022-12-13T10:44:22;6.32;;;3.75;;
63095;SDS011;49184;55.596;37.770;2022-12-13T10:49:51;6.13;;;3.23;;
63095;SDS011;49184;55.596;37.770;2022-12-13T10:52:56;7.28;;;3.30;;
63095;SDS011;49184;55.596;37.770;2022-12-13T10:58:02;6.35;;;3.33;;
63095;SDS011;49184;55.596;37.770;2022-12-13T11:00:34;4.35;;;3.00;;
63095;SDS011;49184;55.596;37.770;2022-12-13T11:03:05;6.72;;;3.20;;
63095;SDS011;49184;55.596;37.770;2022-12-13T11:05:35;6.75;;;2.90;;
63095;SDS011;49184;55.596;37.770;2022-12-13T11:08:13;5.95;;;3.22;;
63095;SDS011;49184;55.596;37.770;2022-12-13T11:11:03;9.90;;;3.50;;
63095;SDS011;49184;55.596;37.770;2022-12-13T11:19:24;6.28;;;4.10;;
63095;SDS011;49184;55.596;37.770;2022-12-13T11:22:22;8.55;;;4.50;;
63095;SDS011;49184;55.596;37.770;2022-12-13T11:24:50;8.38;;;4.30;;
63095;SDS011;49184;55.596;37.770;2022-12-13T11:30:17;9.27;;;4.47;;
63095;SDS011;49184;55.596;37.770;2022-12-13T11:41:33;7.85;;;3.70;;
63095;SDS011;49184;55.596;37.770;2022-12-13T11:44:26;8.45;;;4.57;;
63095;SDS011;49184;55.596;37.770;2022-12-13T11:47:20;7.80;;;4.78;;
63095;SDS011;49184;55.596;37.770;2022-12-13T11:50:14;7.82;;;4.47;;
63095;SDS011;49184;55.596;37.770;2022-12-13T11:53:32;7.85;;;4.18;;
63095;SDS011;49184;55.596;37.770;2022-12-13T12:02:34;18.75;;;8.40;;
63095;SDS011;49184;55.596;37.770;2022-12-13T12:05:37;18.35;;;9.20;;
63095;SDS011;49184;55.596;37.770;2022-12-13T12:11:38;18.02;;;9.88;;
63095;SDS011;49184;55.596;37.770;2022-12-13T12:17:08;19.40;;;9.93;;
63095;SDS011;49184;55.596;37.770;2022-12-13T12:19:39;17.67;;;9.45;;
63095;SDS011;49184;55.596;37.770;2022-12-13T12:22:49;22.38;;;11.18;;
63095;SDS011;49184;55.596;37.770;2022-12-13T12:28:34;19.02;;;9.80;;
63095;SDS011;49184;55.596;37.770;2022-12-13T12:40:26;15.05;;;7.85;;
63095;SDS011;49184;55.596;37.770;2022-12-13T12:49:51;16.83;;;7.70;;
63095;SDS011;49184;55.596;37.770;2022-12-13T12:53:10;15.40;;;7.50;;
63095;SDS011;49184;55.596;37.770;2022-12-13T12:56:20;13.50;;;7.03;;
63095;SDS011;49184;55.596;37.770;2022-12-13T13:05:35;15.52;;;7.97;;
63095;SDS011;49184;55.596;37.770;2022-12-13T13:08:09;16.75;;;8.05;;
63095;SDS011;49184;55.596;37.770;2022-12-13T13:10:45;16.73;;;8.45;;
63095;SDS011;49184;55.596;37.770;2022-12-13T13:13:50;16.63;;;9.05;;
63095;SDS011;49184;55.596;37.770;2022-12-13T13:20:46;15.27;;;7.43;;
63095;SDS011;49184;55.596;37.770;2022-12-13T13:29:41;25.52;;;10.10;;
63095;SDS011;49184;55.596;37.770;2022-12-13T13:34:38;14.93;;;8.20;;
63095;SDS011;49184;55.596;37.770;2022-12-13T13:40:49;13.02;;;8.07;;
63095;SDS011;49184;55.596;37.770;2022-12-13T13:43:15;17.83;;;9.05;;
63095;SDS011;49184;55.596;37.770;2022-12-13T14:25:55;18.92;;;8.18;;
63095;SDS011;49184;55.596;37.770;2022-12-13T14:28:40;20.15;;;8.98;;
63095;SDS011;49184;55.596;37.770;2022-12-13T14:34:06;20.55;;;10.35;;
63095;SDS011;49184;55.596;37.770;2022-12-13T14:36:39;18.33;;;9.88;;
63095;SDS011;49184;55.596;37.770;2022-12-13T14:39:15;18.05;;;10.07;;
63095;SDS011;49184;55.596;37.770;2022-12-13T14:41:46;23.20;;;10.45;;
63095;SDS011;49184;55.596;37.770;2022-12-13T14:44:19;17.88;;;9.65;;
63095;SDS011;49184;55.596;37.770;2022-12-13T14:46:55;20.63;;;9.60;;
63095;SDS011;49184;55.596;37.770;2022-12-13T14:49:24;20.25;;;9.27;;
63095;SDS011;49184;55.596;37.770;2022-12-13T14:52:38;14.65;;;8.98;;
63095;SDS011;49184;55.596;37.770;2022-12-13T14:55:02;20.08;;;10.23;;
63095;SDS011;49184;55.596;37.770;2022-12-13T14:57:31;19.27;;;9.18;;
63095;SDS011;49184;55.596;37.770;2022-12-13T15:00:21;13.55;;;7.82;;
63095;SDS011;49184;55.596;37.770;2022-12-13T15:02:55;15.82;;;8.77;;
63095;SDS011;49184;55.596;37.770;2022-12-13T15:05:37;16.67;;;7.95;;
63095;SDS011;49184;55.596;37.770;2022-12-13T15:08:08;18.70;;;9.45;;
63095;SDS011;49184;55.596;37.770;2022-12-13T15:10:42;14.70;;;9.35;;
63095;SDS011;49184;55.596;37.770;2022-12-13T15:16:13;17.42;;;9.48;;
63095;SDS011;49184;55.596;37.770;2022-12-13T15:21:53;15.05;;;8.68;;
63095;SDS011;49184;55.596;37.770;2022-12-13T15:24:27;16.70;;;9.30;;
63095;SDS011;49184;55.596;37.770;2022-12-13T15:27:00;16.85;;;9.52;;
63095;SDS011;49184;55.596;37.770;2022-12-13T15:29:32;15.98;;;8.82;;
63095;SDS011;49184;55.596;37.770;2022-12-13T15:32:26;17.55;;;8.82;;
63095;SDS011;49184;55.596;37.770;2022-12-13T15:35:30;23.58;;;9.30;;
63095;SDS011;49184;55.596;37.770;2022-12-13T15:38:19;18.77;;;10.10;;
63095;SDS011;49184;55.596;37.770;2022-12-13T15:40:48;18.48;;;9.95;;
63095;SDS011;49184;55.596;37.770;2022-12-13T15:43:21;21.83;;;10.80;;
63095;SDS011;49184;55.596;37.770;2022-12-13T15:46:07;20.90;;;10.70;;
63095;SDS011;49184;55.596;37.770;2022-12-13T15:48:35;20.52;;;10.52;;
63095;SDS011;49184;55.596;37.770;2022-12-13T15:51:18;34.13;;;15.98;;
63095;SDS011;49184;55.596;37.770;2022-12-13T15:57:34;31.90;;;14.90;;
63095;SDS011;49184;55.596;37.770;2022-12-13T16:03:54;28.05;;;16.17;;
63095;SDS011;49184;55.596;37.770;2022-12-13T16:06:24;31.38;;;15.98;;
63095;SDS011;49184;55.596;37.770;2022-12-13T16:10:14;27.35;;;13.30;;
63095;SDS011;49184;55.596;37.770;2022-12-13T16:22:56;34.42;;;13.38;;
63095;SDS011;49184;55.596;37.770;2022-12-13T16:25:32;26.23;;;14.48;;
63095;SDS011;49184;55.596;37.770;2022-12-13T16:28:05;26.23;;;13.40;;
63095;SDS011;49184;55.596;37.770;2022-12-13T16:30:59;27.45;;;12.60;;
63095;SDS011;49184;55.596;37.770;2022-12-13T16:33:47;23.80;;;13.02;;
63095;SDS011;49184;55.596;37.770;2022-12-13T16:54:49;28.08;;;13.45;;
63095;SDS011;49184;55.596;37.770;2022-12-13T16:57:18;26.10;;;12.40;;
63095;SDS011;49184;55.596;37.770;2022-12-13T17:02:23;20.23;;;10.98;;
63095;SDS011;49184;55.596;37.770;2022-12-13T17:05:15;20.97;;;11.60;;
63095;SDS011;49184;55.596;37.770;2022-12-13T17:10:31;23.63;;;11.30;;
63095;SDS011;49184;55.596;37.770;2022-12-13T17:13:25;19.77;;;10.95;;
63095;SDS011;49184;55.596;37.770;2022-12-13T17:19:25;25.67;;;11.93;;
63095;SDS011;49184;55.596;37.770;2022-12-13T17:22:03;27.38;;;12.23;;
63095;SDS011;49184;55.596;37.770;2022-12-13T17:24:40;21.83;;;11.07;;
63095;SDS011;49184;55.596;37.770;2022-12-13T17:27:25;22.77;;;12.98;;
63095;SDS011;49184;55.596;37.770;2022-12-13T17:30:25;28.60;;;13.63;;
63095;SDS011;49184;55.596;37.770;2022-12-13T17:33:10;34.47;;;15.45;;
63095;SDS011;49184;55.596;37.770;2022-12-13T17:35:43;30.73;;;15.38;;
63095;SDS011;49184;55.596;37.770;2022-12-13T17:38:14;30.58;;;15.43;;
63095;SDS011;49184;55.596;37.770;2022-12-13T17:41:02;29.40;;;14.90;;
63095;SDS011;49184;55.596;37.770;2022-12-13T17:43:37;26.30;;;14.93;;
63095;SDS011;49184;55.596;37.770;2022-12-13T17:46:05;26.08;;;14.48;;
63095;SDS011;49184;55.596;37.770;2022-12-13T17:49:03;28.48;;;15.13;;
63095;SDS011;49184;55.596;37.770;2022-12-13T17:51:35;29.17;;;16.23;;
63095;SDS011;49184;55.596;37.770;2022-12-13T17:54:45;29.80;;;15.77;;
63095;SDS011;49184;55.596;37.770;2022-12-13T17:57:25;33.15;;;17.25;;
63095;SDS011;49184;55.596;37.770;2022-12-13T17:59:52;29.95;;;15.10;;
63095;SDS011;49184;55.596;37.770;2022-12-13T18:02:21;29.08;;;14.68;;
63095;SDS011;49184;55.596;37.770;2022-12-13T18:05:12;22.60;;;12.80;;
63095;SDS011;49184;55.596;37.770;2022-12-13T18:07:39;22.30;;;12.85;;
63095;SDS011;49184;55.596;37.770;2022-12-13T18:10:07;24.35;;;13.13;;
63095;SDS011;49184;55.596;37.770;2022-12-13T18:12:39;25.08;;;12.50;;
63095;SDS011;49184;55.596;37.770;2022-12-13T18:15:28;23.92;;;12.15;;
63095;SDS011;49184;55.596;37.770;2022-12-13T18:17:57;23.58;;;11.95;;
63095;SDS011;49184;55.596;37.770;2022-12-13T18:20:55;18.17;;;8.93;;
63095;SDS011;49184;55.596;37.770;2022-12-13T18:23:31;12.15;;;7.25;;
63095;SDS011;49184;55.596;37.770;2022-12-13T18:25:59;11.13;;;4.93;;
63095;SDS011;49184;55.596;37.770;2022-12-13T18:28:32;7.90;;;4.78;;
63095;SDS011;49184;55.596;37.770;2022-12-13T18:31:20;8.68;;;4.93;;
63095;SDS011;49184;55.596;37.770;2022-12-13T18:37:09;7.20;;;4.50;;
63095;SDS011;49184;55.596;37.770;2022-12-13T18:39:41;8.07;;;4.72;;
63095;SDS011;49184;55.596;37.770;2022-12-13T18:42:11;5.93;;;3.92;;
63095;SDS011;49184;55.596;37.770;2022-12-13T18:44:45;6.25;;;4.20;;
63095;SDS011;49184;55.596;37.770;2022-12-13T18:47:14;6.97;;;4.50;;
63095;SDS011;49184;55.596;37.770;2022-12-13T18:49:55;6.32;;;3.90;;
63095;SDS011;49184;55.596;37.770;2022-12-13T18:58:43;7.18;;;3.50;;